Time;durP1;ratioP1;P1;durP2;ratioP2;P2;SDS_P1;SDS_P2;PMS_P1;PMS_P2;Temp;Humidity;BMP_temperature;BMP_pressure;BME280_temperature;BME280_humidity;BME280_pressure;Samples;Min_cycle;Max_cycle;Signal;HPM_P1;HPM_P2
2024/04/15 00:00:29;;;;;;;7.27;4.73;;;15.00;99.90;;;;;;5469282;26;20659;-81
2024/04/15 00:02:55;;;;;;;8.23;7.43;;;14.90;99.90;;;;;;5468958;26;20236;-81
2024/04/15 00:05:24;;;;;;;6.30;5.80;;;14.90;99.90;;;;;;5445415;26;20278;-81
2024/04/15 00:07:52;;;;;;;7.23;6.43;;;14.90;99.90;;;;;;5423146;26;20371;-81
2024/04/15 00:10:21;;;;;;;6.90;6.27;;;14.90;99.90;;;;;;5481062;26;20307;-81
2024/04/15 00:12:48;;;;;;;7.50;6.90;;;14.80;99.90;;;;;;5473888;26;21123;-82
2024/04/15 00:15:17;;;;;;;8.57;7.20;;;14.90;99.90;;;;;;5428833;26;20243;-81
2024/04/15 00:17:43;;;;;;;7.10;6.50;;;14.90;99.90;;;;;;5483032;26;20247;-81
2024/04/15 00:20:12;;;;;;;6.23;5.73;;;15.00;99.90;;;;;;5470343;26;20357;-81
2024/04/15 00:22:38;;;;;;;7.17;6.47;;;15.10;99.90;;;;;;5454024;26;20290;-81
2024/04/15 00:25:10;;;;;;;7.33;6.73;;;15.10;99.90;;;;;;5431579;26;20278;-81
2024/04/15 00:27:36;;;;;;;4.90;4.10;;;15.20;99.90;;;;;;5467214;26;20603;-81
2024/04/15 00:30:04;;;;;;;4.90;4.40;;;15.20;99.90;;;;;;5454646;26;20285;-82
2024/04/15 00:32:30;;;;;;;6.33;4.50;;;15.30;99.90;;;;;;5471230;26;20241;-81
2024/04/15 00:34:59;;;;;;;5.13;4.37;;;15.30;99.90;;;;;;5441716;26;20815;-81
2024/04/15 00:37:24;;;;;;;5.20;4.60;;;15.30;99.90;;;;;;5478902;26;20786;-82
2024/04/15 00:39:55;;;;;;;4.63;4.20;;;15.30;99.90;;;;;;5442234;26;20231;-82
2024/04/15 00:42:23;;;;;;;4.60;4.10;;;15.30;99.90;;;;;;5440549;26;20745;-81
2024/04/15 00:44:53;;;;;;;5.40;4.47;;;15.30;99.90;;;;;;5483296;26;20243;-81
2024/04/15 00:47:19;;;;;;;4.60;4.10;;;15.30;99.90;;;;;;5434574;26;20285;-81
2024/04/15 00:49:48;;;;;;;4.73;3.87;;;15.30;99.90;;;;;;5436697;26;20280;-83
2024/04/15 00:52:14;;;;;;;5.40;4.27;;;15.30;99.90;;;;;;5459410;26;20234;-82
2024/04/15 00:54:46;;;;;;;5.87;4.47;;;15.20;99.90;;;;;;5432820;26;20833;-82
2024/04/15 00:57:12;;;;;;;4.43;4.03;;;15.30;99.90;;;;;;5439078;26;20293;-82
2024/04/15 00:59:44;;;;;;;4.80;4.30;;;15.20;99.90;;;;;;5460842;26;20236;-82
2024/04/15 01:02:10;;;;;;;4.67;4.17;;;15.30;99.90;;;;;;5446485;26;20227;-82
2024/04/15 01:04:39;;;;;;;6.00;4.30;;;15.30;99.90;;;;;;5446642;26;20235;-82
2024/04/15 01:07:05;;;;;;;5.33;4.70;;;15.30;99.90;;;;;;5439259;26;20239;-82
2024/04/15 01:09:34;;;;;;;4.43;4.03;;;15.30;99.90;;;;;;5464789;26;20736;-82
2024/04/15 01:11:59;;;;;;;6.20;4.63;;;15.30;99.90;;;;;;5464440;26;20669;-82
2024/04/15 01:14:28;;;;;;;4.63;4.17;;;15.30;99.90;;;;;;5438944;26;20236;-82
2024/04/15 01:16:56;;;;;;;5.97;4.23;;;15.30;99.90;;;;;;5469441;26;20278;-82
2024/04/15 01:19:25;;;;;;;5.50;4.33;;;15.30;99.90;;;;;;5445680;26;20289;-84
2024/04/15 01:21:51;;;;;;;4.57;4.17;;;15.30;99.90;;;;;;5455628;26;20285;-82
2024/04/15 01:24:22;;;;;;;4.73;4.07;;;15.20;99.90;;;;;;5471628;26;20250;-83
2024/04/15 01:26:48;;;;;;;4.90;4.40;;;15.20;99.90;;;;;;5441535;26;20719;-82
2024/04/15 01:29:16;;;;;;;5.27;4.47;;;15.20;99.90;;;;;;5441070;26;20248;-82
2024/04/15 01:31:42;;;;;;;4.70;4.17;;;15.20;99.90;;;;;;5439647;26;20320;-83
2024/04/15 01:34:10;;;;;;;5.13;4.07;;;15.10;99.90;;;;;;5453916;26;20247;-82
2024/04/15 01:36:36;;;;;;;4.40;4.00;;;15.10;99.90;;;;;;5473014;26;20228;-82
2024/04/15 01:39:05;;;;;;;5.93;4.33;;;15.10;99.90;;;;;;5443748;26;20236;-82
2024/04/15 01:41:33;;;;;;;6.83;4.37;;;15.10;99.90;;;;;;5419515;26;20334;-82
2024/04/15 01:44:02;;;;;;;4.57;4.13;;;15.20;99.90;;;;;;5466591;26;20249;-83
2024/04/15 01:46:27;;;;;;;6.47;4.67;;;15.10;99.90;;;;;;5453006;26;20269;-82
2024/04/15 01:48:56;;;;;;;5.07;3.77;;;15.10;99.90;;;;;;5433027;26;20243;-82
2024/04/15 01:51:22;;;;;;;4.70;4.03;;;15.20;99.90;;;;;;5448341;26;20274;-82
2024/04/15 01:53:50;;;;;;;4.47;3.93;;;15.20;99.90;;;;;;5476370;26;20246;-82
2024/04/15 01:56:16;;;;;;;3.97;3.60;;;15.20;99.90;;;;;;5449465;26;20232;-82
2024/04/15 01:58:47;;;;;;;4.93;4.20;;;15.30;99.90;;;;;;5477686;26;20235;-82
2024/04/15 02:01:13;;;;;;;4.73;4.20;;;15.30;99.90;;;;;;5439195;26;20235;-83
2024/04/15 02:03:42;;;;;;;4.73;4.07;;;15.30;99.90;;;;;;5441592;26;20293;-83
2024/04/15 02:06:09;;;;;;;4.83;4.30;;;15.30;99.90;;;;;;5466479;26;20242;-82
2024/04/15 02:08:38;;;;;;;4.77;4.20;;;15.30;99.90;;;;;;5459126;26;20636;-82
2024/04/15 02:11:04;;;;;;;4.23;3.83;;;15.30;99.90;;;;;;5435343;26;20363;-83
2024/04/15 02:13:32;;;;;;;5.10;4.27;;;15.30;99.90;;;;;;5423355;26;20712;-82
2024/04/15 02:16:01;;;;;;;5.30;4.00;;;15.30;99.90;;;;;;5445998;26;20282;-82
2024/04/15 02:18:29;;;;;;;5.83;4.67;;;15.30;99.90;;;;;;5457563;26;20239;-82
2024/04/15 02:20:55;;;;;;;4.93;4.43;;;15.30;99.90;;;;;;5448355;26;20285;-82
2024/04/15 02:23:24;;;;;;;4.87;4.07;;;15.30;99.90;;;;;;5458013;26;20239;-81
2024/04/15 02:25:50;;;;;;;5.13;4.00;;;15.30;99.90;;;;;;5466484;26;20270;-82
2024/04/15 02:28:18;;;;;;;5.53;3.87;;;15.30;99.90;;;;;;5438772;26;20243;-82
2024/04/15 02:30:44;;;;;;;5.83;3.63;;;15.30;99.90;;;;;;5464928;26;20280;-82
2024/04/15 02:33:15;;;;;;;3.70;3.40;;;15.30;99.90;;;;;;5452890;26;20234;-82
2024/04/15 02:35:41;;;;;;;4.00;3.70;;;15.30;99.90;;;;;;5434128;26;21316;-83
2024/04/15 02:38:10;;;;;;;4.30;3.70;;;15.30;99.90;;;;;;5441975;26;20241;-83
2024/04/15 02:40:35;;;;;;;4.33;3.83;;;15.30;99.90;;;;;;5427396;26;20286;-82
2024/04/15 02:43:04;;;;;;;4.27;3.87;;;15.30;99.90;;;;;;5447040;26;20319;-80
2024/04/15 02:45:30;;;;;;;4.67;3.93;;;15.30;99.90;;;;;;5444984;26;20241;-81
2024/04/15 02:47:58;;;;;;;4.30;3.60;;;15.30;99.90;;;;;;5432297;26;20767;-82
2024/04/15 02:50:27;;;;;;;3.60;3.30;;;15.30;99.90;;;;;;5440567;26;20235;-81
2024/04/15 02:52:55;;;;;;;4.20;3.47;;;15.40;99.90;;;;;;5481216;26;20277;-81
2024/04/15 02:55:21;;;;;;;3.50;3.20;;;15.40;99.90;;;;;;5451245;26;20239;-81
2024/04/15 02:57:49;;;;;;;3.80;3.50;;;15.40;99.90;;;;;;5466931;26;20266;-82
2024/04/15 03:00:16;;;;;;;3.97;3.60;;;15.40;99.90;;;;;;5452186;26;20740;-82
2024/04/15 03:02:44;;;;;;;3.47;3.17;;;15.40;99.90;;;;;;5452127;26;20234;-82
2024/04/15 03:05:10;;;;;;;4.63;4.23;;;15.50;99.90;;;;;;5481020;26;20247;-81
2024/04/15 03:07:41;;;;;;;4.00;3.70;;;15.40;99.90;;;;;;5462607;26;20260;-81
2024/04/15 03:10:07;;;;;;;4.10;3.80;;;15.50;99.90;;;;;;5454855;26;20243;-82
2024/04/15 03:12:35;;;;;;;5.73;4.20;;;15.50;99.90;;;;;;5454513;26;20276;-79
2024/04/15 03:15:02;;;;;;;4.23;3.83;;;15.50;99.90;;;;;;5473458;26;20267;-81
2024/04/15 03:17:30;;;;;;;5.30;4.40;;;15.50;99.90;;;;;;5428295;26;20251;-79
2024/04/15 03:19:56;;;;;;;4.33;3.93;;;15.50;99.90;;;;;;5441216;26;20738;-80
2024/04/15 03:22:25;;;;;;;4.90;3.90;;;15.50;99.90;;;;;;5439725;26;20231;-81
2024/04/15 03:24:53;;;;;;;4.07;3.77;;;15.50;99.90;;;;;;5453824;26;20243;-79
2024/04/15 03:27:22;;;;;;;3.80;3.50;;;15.50;99.90;;;;;;5437089;26;20299;-81
2024/04/15 03:29:48;;;;;;;4.20;3.80;;;15.40;99.90;;;;;;5439566;26;20272;-82
2024/04/15 03:32:16;;;;;;;4.13;3.73;;;15.40;99.90;;;;;;5439189;26;20249;-80
2024/04/15 03:34:42;;;;;;;4.37;3.97;;;15.40;99.90;;;;;;5447687;26;20290;-82
2024/04/15 03:37:10;;;;;;;3.80;3.40;;;15.30;99.90;;;;;;5451044;26;20235;-80
2024/04/15 03:39:39;;;;;;;3.80;3.47;;;15.30;99.90;;;;;;5454997;26;20744;-82
2024/04/15 03:42:07;;;;;;;3.70;3.40;;;15.30;99.90;;;;;;5476762;26;20243;-80
2024/04/15 03:44:36;;;;;;;4.27;3.87;;;15.30;99.90;;;;;;5442595;26;20234;-80
2024/04/15 03:47:02;;;;;;;4.00;3.60;;;15.30;99.90;;;;;;5474527;26;20273;-80
2024/04/15 03:49:30;;;;;;;4.20;3.50;;;15.30;99.90;;;;;;5438353;26;20767;-80
2024/04/15 03:51:56;;;;;;;3.83;3.30;;;15.30;99.90;;;;;;5465769;26;20777;-80
2024/04/15 03:54:25;;;;;;;3.40;3.10;;;15.20;99.90;;;;;;5469954;26;20250;-80
2024/04/15 03:56:53;;;;;;;3.33;3.03;;;15.20;99.90;;;;;;5452917;26;20227;-80
2024/04/15 03:59:24;;;;;;;3.20;2.90;;;15.20;99.90;;;;;;5423748;26;20243;-79
2024/04/15 04:01:50;;;;;;;3.50;3.20;;;15.20;99.90;;;;;;5443713;26;20239;-79
2024/04/15 04:04:19;;;;;;;3.00;2.80;;;15.10;99.90;;;;;;5424620;26;20301;-79
2024/04/15 04:06:44;;;;;;;3.47;3.17;;;15.10;99.90;;;;;;5449338;26;20848;-80
2024/04/15 04:09:14;;;;;;;3.93;3.57;;;15.10;99.90;;;;;;5448903;26;20583;-79
2024/04/15 04:11:40;;;;;;;5.00;3.40;;;15.10;99.90;;;;;;5418773;26;20774;-80
2024/04/15 04:14:08;;;;;;;5.10;4.67;;;15.00;99.90;;;;;;5455079;26;20292;-80
2024/04/15 04:16:37;;;;;;;5.00;4.47;;;15.00;99.90;;;;;;5440800;26;20285;-81
2024/04/15 04:19:06;;;;;;;5.17;4.77;;;15.00;99.90;;;;;;5480021;26;20284;-80
2024/04/15 04:21:32;;;;;;;6.03;5.53;;;14.90;99.90;;;;;;5474689;26;20235;-80
2024/04/15 04:24:01;;;;;;;4.90;4.50;;;14.90;99.90;;;;;;5464013;26;20289;-80
2024/04/15 04:26:27;;;;;;;6.03;5.47;;;14.90;99.90;;;;;;5473755;26;20715;-80
2024/04/15 04:28:55;;;;;;;3.57;3.27;;;14.80;99.90;;;;;;5459801;26;20286;-80
2024/04/15 04:31:21;;;;;;;3.23;3.00;;;14.80;99.90;;;;;;5456333;26;20240;-81
2024/04/15 04:33:52;;;;;;;4.00;3.57;;;14.70;99.90;;;;;;5482433;26;20285;-81
2024/04/15 04:36:18;;;;;;;3.63;3.33;;;14.70;99.90;;;;;;5447781;26;20796;-80
2024/04/15 04:38:47;;;;;;;3.53;3.13;;;14.70;99.90;;;;;;5466791;26;20423;-80
2024/04/15 04:41:14;;;;;;;5.23;4.73;;;14.70;99.90;;;;;;5478758;26;20233;-79
2024/04/15 04:43:42;;;;;;;6.27;5.77;;;14.70;99.90;;;;;;5433681;26;20294;-81
2024/04/15 04:46:09;;;;;;;5.30;4.83;;;14.70;99.90;;;;;;5462503;26;20250;-79
2024/04/15 04:48:37;;;;;;;5.93;5.40;;;14.70;99.90;;;;;;5456528;26;20315;-81
2024/04/15 04:51:10;;;;;;;5.40;5.00;;;14.70;99.90;;;;;;5447157;26;20273;-80
2024/04/15 04:53:37;;;;;;;6.60;6.00;;;14.70;99.90;;;;;;5454036;26;20709;-79
2024/04/15 04:56:10;;;;;;;7.03;6.43;;;14.70;99.90;;;;;;5451112;26;20573;-79
2024/04/15 04:58:36;;;;;;;7.67;5.83;;;14.70;99.90;;;;;;5481020;26;20243;-80
2024/04/15 05:01:10;;;;;;;7.10;6.50;;;14.70;99.90;;;;;;5436739;26;20323;-79
2024/04/15 05:03:36;;;;;;;6.30;5.80;;;14.70;99.90;;;;;;5453648;26;20265;-79
2024/04/15 05:06:10;;;;;;;6.70;6.20;;;14.80;99.90;;;;;;5453110;26;20588;-79
2024/04/15 05:08:36;;;;;;;5.97;5.57;;;14.80;99.90;;;;;;5450871;26;20406;-79
2024/04/15 05:11:05;;;;;;;6.87;6.20;;;14.80;99.90;;;;;;5441316;26;20316;-79
2024/04/15 05:13:31;;;;;;;6.63;6.03;;;14.80;99.90;;;;;;5452002;26;20376;-79
2024/04/15 05:16:05;;;;;;;6.23;5.73;;;14.80;99.90;;;;;;5452650;26;20231;-79
2024/04/15 05:18:31;;;;;;;5.83;5.40;;;14.80;99.90;;;;;;5453058;26;20758;-79
2024/04/15 05:21:00;;;;;;;6.33;5.83;;;14.80;99.90;;;;;;5431568;26;20352;-79
2024/04/15 05:23:29;;;;;;;6.13;5.53;;;14.80;99.90;;;;;;5481310;26;20831;-79
2024/04/15 05:26:00;;;;;;;6.90;6.20;;;14.80;99.90;;;;;;5448736;26;20281;-79
2024/04/15 05:28:26;;;;;;;6.40;5.80;;;14.80;99.90;;;;;;5439955;26;20638;-79
2024/04/15 05:30:56;;;;;;;6.13;5.53;;;14.80;99.90;;;;;;5450378;26;20231;-79
2024/04/15 05:33:24;;;;;;;5.90;5.30;;;14.90;99.90;;;;;;5452522;26;20345;-79
2024/04/15 05:35:51;;;;;;;7.27;5.73;;;14.90;99.90;;;;;;5452583;26;20283;-79
2024/04/15 05:38:19;;;;;;;5.83;5.33;;;14.90;99.90;;;;;;5452138;26;20295;-79
2024/04/15 05:40:48;;;;;;;5.63;5.13;;;14.90;99.90;;;;;;5440405;26;20731;-79
2024/04/15 05:43:16;;;;;;;6.07;5.47;;;14.80;99.90;;;;;;5451858;26;20234;-79
2024/04/15 05:45:43;;;;;;;6.77;6.10;;;14.80;99.90;;;;;;5481872;26;20231;-79
2024/04/15 05:48:12;;;;;;;6.10;5.47;;;14.80;99.90;;;;;;5444088;26;20662;-79
2024/04/15 05:50:39;;;;;;;5.90;5.40;;;14.70;99.90;;;;;;5475545;26;20243;-79
2024/04/15 05:53:07;;;;;;;6.63;5.60;;;14.80;99.90;;;;;;5452520;26;20246;-79
2024/04/15 05:55:35;;;;;;;7.10;5.33;;;14.80;99.90;;;;;;5452670;26;20709;-79
2024/04/15 05:58:06;;;;;;;6.23;5.63;;;14.80;99.90;;;;;;5480919;26;20245;-79
2024/04/15 06:00:32;;;;;;;5.33;4.73;;;14.80;99.90;;;;;;5453117;26;20239;-79
2024/04/15 06:03:01;;;;;;;6.30;5.53;;;14.90;99.90;;;;;;5452552;26;20281;-79
2024/04/15 06:05:26;;;;;;;5.10;4.60;;;14.90;99.90;;;;;;5438474;26;20283;-79
2024/04/15 06:07:55;;;;;;;4.80;4.37;;;14.90;99.90;;;;;;5434320;26;20831;-78
2024/04/15 06:10:22;;;;;;;4.60;4.20;;;15.00;99.90;;;;;;5458252;26;20266;-79
2024/04/15 06:12:51;;;;;;;5.40;5.00;;;15.00;99.90;;;;;;5452753;26;20741;-79
2024/04/15 06:15:19;;;;;;;6.77;5.60;;;15.00;99.90;;;;;;5451366;26;20285;-78
2024/04/15 06:17:49;;;;;;;5.77;4.80;;;15.00;99.90;;;;;;5480382;26;20247;-78
2024/04/15 06:20:15;;;;;;;5.27;4.77;;;15.00;99.90;;;;;;5438802;26;20342;-79
2024/04/15 06:22:43;;;;;;;5.67;5.13;;;14.90;99.90;;;;;;5434499;26;20640;-79
2024/04/15 06:25:09;;;;;;;5.20;4.80;;;14.90;99.90;;;;;;5457437;26;20244;-79
2024/04/15 06:27:37;;;;;;;5.33;4.93;;;14.90;99.90;;;;;;5458482;26;20297;-79
2024/04/15 06:30:05;;;;;;;5.30;4.80;;;14.90;99.90;;;;;;5481750;26;20598;-79
2024/04/15 06:32:36;;;;;;;5.03;4.70;;;14.90;99.90;;;;;;5441231;26;20240;-79
2024/04/15 06:35:03;;;;;;;4.63;4.33;;;14.90;99.90;;;;;;5435302;26;20306;-79
2024/04/15 06:37:31;;;;;;;5.10;4.60;;;14.90;99.90;;;;;;5450826;26;20239;-79
2024/04/15 06:39:57;;;;;;;5.00;4.60;;;14.90;99.90;;;;;;5439366;26;20370;-79
2024/04/15 06:42:25;;;;;;;4.30;4.00;;;14.90;99.90;;;;;;5481878;26;20721;-79
2024/04/15 06:44:51;;;;;;;5.47;4.50;;;14.80;99.90;;;;;;5437889;26;20240;-79
2024/04/15 06:47:20;;;;;;;4.60;4.20;;;14.70;99.90;;;;;;5438317;26;20246;-79
2024/04/15 06:49:48;;;;;;;5.10;4.70;;;14.70;99.90;;;;;;5447784;26;20278;-79
2024/04/15 06:52:16;;;;;;;4.30;3.90;;;14.60;99.90;;;;;;5431503;26;20280;-79
2024/04/15 06:54:47;;;;;;;4.87;4.43;;;14.60;99.90;;;;;;5433031;26;20585;-79
2024/04/15 06:57:15;;;;;;;4.47;4.17;;;14.60;99.90;;;;;;5428375;26;20274;-79
2024/04/15 06:59:41;;;;;;;4.50;4.20;;;14.70;99.90;;;;;;5438342;26;20283;-79
2024/04/15 07:02:13;;;;;;;5.40;3.83;;;14.70;99.90;;;;;;5477396;26;20282;-80
2024/04/15 07:04:38;;;;;;;4.63;4.23;;;14.60;99.90;;;;;;5462518;26;20293;-79
2024/04/15 07:07:09;;;;;;;3.87;3.57;;;14.70;99.90;;;;;;5462320;26;20588;-79
2024/04/15 07:09:35;;;;;;;4.17;3.77;;;14.70;99.90;;;;;;5433567;26;20285;-79
2024/04/15 07:12:04;;;;;;;4.30;3.83;;;14.60;99.90;;;;;;5437881;26;20633;-79
2024/04/15 07:14:30;;;;;;;4.23;3.83;;;14.50;99.90;;;;;;5437034;26;20235;-79
2024/04/15 07:16:58;;;;;;;3.50;3.20;;;14.50;99.90;;;;;;5423436;26;20354;-79
2024/04/15 07:19:24;;;;;;;4.27;3.97;;;14.50;99.90;;;;;;5450215;26;20342;-79
2024/04/15 07:21:52;;;;;;;4.60;4.10;;;14.40;99.90;;;;;;5449920;26;20244;-79
2024/04/15 07:24:21;;;;;;;4.40;4.10;;;14.40;99.90;;;;;;5441211;26;20242;-79
2024/04/15 07:26:50;;;;;;;4.03;3.60;;;14.40;99.90;;;;;;5450351;26;20283;-79
2024/04/15 07:29:15;;;;;;;5.60;5.10;;;14.40;99.90;;;;;;5435441;26;20306;-80
2024/04/15 07:31:44;;;;;;;5.77;5.27;;;14.40;99.90;;;;;;5465512;26;20336;-83
2024/04/15 07:34:10;;;;;;;5.10;4.70;;;14.40;99.90;;;;;;5448682;26;20237;-78
2024/04/15 07:36:38;;;;;;;5.00;4.60;;;14.30;99.90;;;;;;5442174;26;20243;-82
2024/04/15 07:39:04;;;;;;;5.90;5.40;;;14.30;99.90;;;;;;5464620;26;20269;-82
2024/04/15 07:41:36;;;;;;;6.13;5.40;;;14.30;99.90;;;;;;5479491;26;20241;-81
2024/04/15 07:44:03;;;;;;;6.03;5.63;;;14.30;99.90;;;;;;5478644;26;20240;-82
2024/04/15 07:46:31;;;;;;;6.40;5.90;;;14.30;99.90;;;;;;5453056;26;20276;-82
2024/04/15 07:48:57;;;;;;;6.10;5.60;;;14.40;99.90;;;;;;5468436;26;20280;-82
2024/04/15 07:51:26;;;;;;;5.20;4.80;;;14.40;99.90;;;;;;5478266;26;20239;-82
2024/04/15 07:53:52;;;;;;;5.40;4.90;;;14.50;99.90;;;;;;5452380;26;20241;-81
2024/04/15 07:56:20;;;;;;;5.90;5.30;;;14.60;99.90;;;;;;5476129;26;20622;-82
2024/04/15 07:58:49;;;;;;;5.27;4.77;;;14.70;99.90;;;;;;5443811;26;20301;-81
2024/04/15 08:01:17;;;;;;;5.13;4.40;;;14.70;99.90;;;;;;5433902;26;20231;-81
2024/04/15 08:03:43;;;;;;;3.57;2.90;;;14.80;99.90;;;;;;5460620;26;20249;-82
2024/04/15 08:06:11;;;;;;;4.53;3.00;;;14.80;99.90;;;;;;5452213;26;20283;-82
2024/04/15 08:08:37;;;;;;;4.03;3.23;;;14.80;99.90;;;;;;5438625;26;20241;-82
2024/04/15 08:11:06;;;;;;;3.90;2.67;;;14.80;99.90;;;;;;5471492;26;20281;-82
2024/04/15 08:13:32;;;;;;;4.33;3.90;;;14.80;99.90;;;;;;5462987;26;20238;-82
2024/04/15 08:16:03;;;;;;;4.67;4.17;;;14.80;99.90;;;;;;5467305;26;20242;-82
2024/04/15 08:18:29;;;;;;;5.27;4.50;;;14.80;99.90;;;;;;5455339;26;20232;-82
2024/04/15 08:20:58;;;;;;;4.03;3.50;;;14.90;99.90;;;;;;5454571;26;20272;-83
2024/04/15 08:23:24;;;;;;;3.63;2.80;;;14.90;99.90;;;;;;5457623;26;20238;-82
2024/04/15 08:25:55;;;;;;;4.13;3.77;;;14.90;99.90;;;;;;5443313;26;20293;-81
2024/04/15 08:28:22;;;;;;;4.50;4.10;;;15.00;99.90;;;;;;5445648;26;20239;-81
2024/04/15 08:30:51;;;;;;;4.67;4.20;;;15.00;99.90;;;;;;5449437;26;20235;-81
2024/04/15 08:33:19;;;;;;;4.83;4.43;;;15.10;99.90;;;;;;5447460;26;20243;-81
2024/04/15 08:35:48;;;;;;;6.37;4.17;;;15.20;99.90;;;;;;5456812;26;20230;-81
2024/04/15 08:38:16;;;;;;;5.57;3.30;;;15.30;99.90;;;;;;5456141;26;20298;-82
2024/04/15 08:40:54;;;;;;;3.40;3.10;;;15.50;99.90;;;;;;5444908;26;20239;-81
2024/04/15 08:43:22;;;;;;;3.33;2.90;;;15.70;99.90;;;;;;5457038;26;20239;-81
2024/04/15 08:45:55;;;;;;;4.13;3.33;;;16.00;99.90;;;;;;5485410;26;20734;-82
2024/04/15 08:48:24;;;;;;;4.73;3.30;;;16.20;99.90;;;;;;5462680;26;20235;-81
2024/04/15 08:50:55;;;;;;;4.20;3.17;;;16.30;99.90;;;;;;5485126;26;20245;-83
2024/04/15 08:53:21;;;;;;;4.73;2.80;;;16.50;99.90;;;;;;5446151;26;20241;-82
2024/04/15 08:55:50;;;;;;;4.33;2.80;;;16.60;99.90;;;;;;5445345;26;20232;-82
2024/04/15 08:58:16;;;;;;;3.30;2.80;;;16.70;99.90;;;;;;5435901;26;20371;-83
2024/04/15 09:00:45;;;;;;;5.53;3.07;;;16.60;99.90;;;;;;5462022;26;20729;-81
2024/04/15 09:03:12;;;;;;;2.60;2.40;;;16.70;99.90;;;;;;5443662;26;20260;-82
2024/04/15 09:05:43;;;;;;;6.37;3.17;;;16.70;99.90;;;;;;5439237;26;20241;-81
2024/04/15 09:08:09;;;;;;;6.03;2.80;;;16.70;99.90;;;;;;5442489;26;20229;-82
2024/04/15 09:10:40;;;;;;;5.80;2.90;;;16.70;99.90;;;;;;5435299;26;20236;-83
2024/04/15 09:13:08;;;;;;;5.27;3.10;;;16.70;99.90;;;;;;5450444;26;20231;-83
2024/04/15 09:15:36;;;;;;;3.87;2.80;;;16.70;99.90;;;;;;5443601;26;20333;-81
2024/04/15 09:18:03;;;;;;;4.20;2.67;;;16.80;99.90;;;;;;5458764;26;20234;-81
2024/04/15 09:20:31;;;;;;;4.67;3.07;;;17.00;99.90;;;;;;5440812;26;20282;-82
2024/04/15 09:23:02;;;;;;;3.57;3.03;;;17.10;99.90;;;;;;5472143;26;20281;-82
2024/04/15 09:25:31;;;;;;;4.13;2.70;;;17.10;99.90;;;;;;5457570;26;20267;-82
2024/04/15 09:27:56;;;;;;;5.03;3.00;;;17.50;99.90;;;;;;5498881;26;20241;-82
2024/04/15 09:30:25;;;;;;;5.50;3.00;;;17.80;99.90;;;;;;5455136;26;20274;-82
2024/04/15 09:32:51;;;;;;;2.87;2.57;;;17.90;99.90;;;;;;5439459;26;20345;-82
2024/04/15 09:35:20;;;;;;;3.83;2.83;;;17.90;99.90;;;;;;5486048;26;20290;-82
2024/04/15 09:37:55;;;;;;;3.77;2.83;;;18.30;99.90;;;;;;5433854;26;20242;-83
2024/04/15 09:40:28;;;;;;;5.10;2.70;;;18.90;99.90;;;;;;5455487;26;20321;-78
2024/04/15 09:42:56;;;;;;;5.57;4.00;;;19.50;99.90;;;;;;5449029;26;20290;-87
2024/04/15 09:45:24;;;;;;;4.77;3.43;;;19.80;99.90;;;;;;5437662;26;20754;-86
2024/04/15 09:47:52;;;;;;;3.17;2.88;;;20.00;99.90;;;;;;5462438;26;20376;-86
2024/04/15 09:50:23;;;;;;;4.63;2.90;;;20.20;99.90;;;;;;5452367;26;20745;-85
2024/04/15 09:52:57;;;;;;;3.70;2.53;;;20.50;99.90;;;;;;5450451;26;20239;-86
2024/04/15 09:55:33;;;;;;;3.27;2.83;;;20.80;99.90;;;;;;5443096;26;20576;-87
2024/04/15 09:58:08;;;;;;;4.73;3.03;;;20.70;99.90;;;;;;5452598;26;20231;-85
2024/04/15 10:00:49;;;;;;;3.40;2.73;;;20.40;99.90;;;;;;5457261;26;20289;-86
2024/04/15 10:03:20;;;;;;;4.00;2.90;;;20.00;99.90;;;;;;5450941;26;20239;-85
2024/04/15 10:05:54;;;;;;;4.17;2.77;;;19.50;99.90;;;;;;5452897;26;20277;-87
2024/04/15 10:08:21;;;;;;;3.83;2.73;;;19.20;99.90;;;;;;5451888;26;20548;-86
2024/04/15 10:10:52;;;;;;;4.70;2.97;;;19.10;99.90;;;;;;5441420;26;20612;-86
2024/04/15 10:13:19;;;;;;;3.63;2.90;;;19.10;99.90;;;;;;5448542;26;20289;-88
2024/04/15 10:15:47;;;;;;;3.73;2.80;;;19.60;99.90;;;;;;5443607;26;20228;-88
2024/04/15 10:18:14;;;;;;;3.03;2.73;;;19.90;99.90;;;;;;5449358;26;20274;-87
2024/04/15 10:20:45;;;;;;;3.93;2.80;;;20.10;99.90;;;;;;5463560;26;20337;-87
2024/04/15 10:23:15;;;;;;;3.50;2.60;;;20.10;99.90;;;;;;5447587;26;20731;-87
2024/04/15 10:25:44;;;;;;;5.70;3.07;;;20.20;99.90;;;;;;5467960;26;20255;-87
2024/04/15 10:28:15;;;;;;;3.27;2.63;;;20.30;99.90;;;;;;5450385;26;20266;-85
2024/04/15 10:30:43;;;;;;;3.93;2.53;;;20.30;99.90;;;;;;5454139;26;20284;-82
2024/04/15 10:33:10;;;;;;;3.10;2.63;;;20.20;99.90;;;;;;5456878;26;20271;-87
2024/04/15 10:35:40;;;;;;;6.60;3.00;;;20.20;99.90;;;;;;5439686;26;20266;-80
2024/04/15 10:38:07;;;;;;;3.10;2.67;;;20.30;99.90;;;;;;5446553;26;20228;-85
2024/04/15 10:40:39;;;;;;;4.60;2.80;;;20.30;99.90;;;;;;5452097;26;20271;-86
2024/04/15 10:43:05;;;;;;;4.93;2.60;;;20.40;99.90;;;;;;5452696;26;20286;-87
2024/04/15 10:45:36;;;;;;;4.53;2.77;;;20.40;99.90;;;;;;5454320;26;20761;-87
2024/04/15 10:48:03;;;;;;;5.17;2.80;;;20.30;99.90;;;;;;5464368;26;20227;-87
2024/04/15 10:50:31;;;;;;;4.50;2.57;;;20.20;99.90;;;;;;5487596;26;20274;-86
2024/04/15 10:52:57;;;;;;;3.03;2.40;;;19.80;99.90;;;;;;5466981;26;20228;-87
2024/04/15 10:55:27;;;;;;;3.33;2.60;;;19.70;99.90;;;;;;5477466;26;20239;-87
2024/04/15 10:57:53;;;;;;;3.87;2.50;;;19.50;99.90;;;;;;5472003;26;20237;-87
2024/04/15 11:00:24;;;;;;;6.43;2.60;;;19.30;99.90;;;;;;5443672;26;20255;-86
2024/04/15 11:02:55;;;;;;;3.50;2.37;;;19.20;99.90;;;;;;5481198;26;20328;-87
2024/04/15 11:05:25;;;;;;;4.07;2.30;;;19.20;99.90;;;;;;5448930;26;20278;-87
2024/04/15 11:07:53;;;;;;;3.43;2.23;;;19.20;99.90;;;;;;5467476;26;20274;-84
2024/04/15 11:10:22;;;;;;;4.23;2.40;;;19.20;99.90;;;;;;5470709;26;20327;-82
2024/04/15 11:12:51;;;;;;;4.27;2.70;;;19.20;99.90;;;;;;5459755;26;20278;-88
2024/04/15 11:15:21;;;;;;;3.50;2.30;;;19.40;99.90;;;;;;5471246;26;20832;-88
2024/04/15 11:37:54;;;;;;;4.07;2.30;;;19.60;99.90;;;;;;5220574;27;20242;-85
2024/04/15 11:40:27;;;;;;;5.83;2.60;;;19.50;99.90;;;;;;5193323;27;20268;-84
2024/04/15 11:43:29;;;;;;;4.10;2.30;;;19.40;99.90;;;;;;5236203;27;20258;-84
2024/04/15 11:48:54;;;;;;;4.90;2.73;;;19.10;99.90;;;;;;5163571;27;20287;-84
2024/04/15 12:16:39;;;;;;;5.37;2.70;;;17.30;99.90;;;;;;4961503;28;20270;-83
2024/04/15 12:19:10;;;;;;;3.67;2.73;;;17.60;99.90;;;;;;5028298;28;20317;-77
2024/04/15 12:21:39;;;;;;;5.97;2.73;;;18.00;99.90;;;;;;5030750;28;20252;-77
2024/04/15 12:24:05;;;;;;;5.07;2.93;;;18.10;99.90;;;;;;5026486;28;20268;-81
2024/04/15 12:26:34;;;;;;;3.63;2.67;;;18.30;99.90;;;;;;5188608;27;20258;-81
2024/04/15 12:29:03;;;;;;;5.20;2.80;;;18.60;99.90;;;;;;5257224;27;20318;-78
2024/04/15 12:31:31;;;;;;;5.40;2.80;;;19.00;99.90;;;;;;5250159;27;20364;-82
2024/04/15 12:33:57;;;;;;;3.03;2.50;;;19.30;99.90;;;;;;5248845;27;20249;-81
2024/04/15 12:36:28;;;;;;;5.50;2.80;;;19.30;99.90;;;;;;5243352;27;20234;-81
2024/04/15 12:38:54;;;;;;;3.23;2.50;;;19.30;99.90;;;;;;5250793;27;20273;-82
2024/04/15 12:41:26;;;;;;;6.93;3.00;;;19.40;99.90;;;;;;5241396;27;20287;-78
2024/04/15 12:43:52;;;;;;;5.13;2.57;;;19.20;99.90;;;;;;5276774;27;20261;-80
2024/04/15 12:50:22;;;;;;;3.20;2.63;;;18.80;99.90;;;;;;5252202;27;20269;-80
2024/04/15 12:52:51;;;;;;;3.78;2.70;;;18.80;99.90;;;;;;5234722;27;20400;-77
2024/04/15 12:55:19;;;;;;;3.43;2.60;;;18.90;99.90;;;;;;5250514;27;20738;-77
2024/04/15 12:57:45;;;;;;;4.37;2.93;;;18.90;99.90;;;;;;5276783;27;20241;-77
2024/04/15 13:00:14;;;;;;;4.20;2.50;;;18.90;99.90;;;;;;5252140;27;20624;-77
2024/04/15 13:02:40;;;;;;;3.87;2.60;;;18.90;99.90;;;;;;5244214;27;20765;-78
2024/04/15 13:05:09;;;;;;;3.47;2.50;;;18.70;99.90;;;;;;5250607;27;20288;-77
2024/04/15 13:07:35;;;;;;;5.23;2.67;;;18.30;99.90;;;;;;5226816;27;20245;-78
2024/04/15 13:10:08;;;;;;;4.10;2.60;;;18.00;99.90;;;;;;5253859;27;20238;-77
2024/04/15 13:12:34;;;;;;;3.77;2.40;;;17.70;99.90;;;;;;5253131;27;20241;-78
2024/04/15 13:15:03;;;;;;;6.10;2.57;;;17.40;99.90;;;;;;5252984;27;20295;-78
2024/04/15 13:17:28;;;;;;;4.53;2.60;;;17.30;99.90;;;;;;5247467;27;20249;-78
2024/04/15 13:19:58;;;;;;;6.80;3.47;;;17.10;99.90;;;;;;5250640;27;20295;-77
2024/04/15 13:22:24;;;;;;;6.77;3.57;;;16.80;99.90;;;;;;5281128;27;20245;-77
2024/04/15 13:24:52;;;;;;;6.70;3.70;;;16.50;99.90;;;;;;5255647;27;20298;-77
2024/04/15 13:27:21;;;;;;;5.93;3.20;;;16.30;99.90;;;;;;5254045;27;20238;-77
2024/04/15 13:29:49;;;;;;;3.83;2.87;;;16.30;99.90;;;;;;5240346;27;20247;-78
2024/04/15 13:32:16;;;;;;;4.47;2.80;;;16.50;99.90;;;;;;5281980;27;20246;-77
2024/04/15 13:34:45;;;;;;;4.77;3.33;;;16.80;99.90;;;;;;5252568;27;20245;-77
2024/04/15 13:37:13;;;;;;;3.83;3.10;;;17.00;99.90;;;;;;5241003;27;20281;-77
2024/04/15 13:39:41;;;;;;;4.87;2.80;;;17.10;99.90;;;;;;5274188;27;20741;-79
2024/04/15 13:42:08;;;;;;;7.27;3.10;;;17.10;99.90;;;;;;5246851;27;20283;-79
2024/04/15 13:44:39;;;;;;;3.23;2.63;;;17.10;99.90;;;;;;5231531;27;20750;-79